Time;durP1;ratioP1;P1;durP2;ratioP2;P2;SDS_P1;SDS_P2;PMS_P1;PMS_P2;Temp;Humidity;BMP_temperature;BMP_pressure;BME280_temperature;BME280_humidity;BME280_pressure;Samples;Min_cycle;Max_cycle;Signal;HPM_P1;HPM_P2
2021/10/05 00:00:07;;;;;;;11.57;9.93;;;12.30;99.90;;;;;;5055221;28;20174;-67
2021/10/05 00:02:33;;;;;;;10.10;8.50;;;12.40;99.90;;;;;;5055061;28;20194;-67
2021/10/05 00:04:59;;;;;;;12.80;9.67;;;12.30;99.90;;;;;;5054699;28;20960;-66
2021/10/05 00:07:25;;;;;;;11.70;9.63;;;12.30;99.90;;;;;;5054962;28;20484;-66
2021/10/05 00:09:50;;;;;;;11.27;9.10;;;12.30;99.90;;;;;;5054760;28;20195;-66
2021/10/05 00:12:16;;;;;;;10.10;8.13;;;12.30;99.90;;;;;;5054659;28;20638;-66
2021/10/05 00:14:43;;;;;;;10.03;7.73;;;12.30;99.90;;;;;;5054504;28;20214;-66
2021/10/05 00:17:09;;;;;;;14.87;8.57;;;12.30;99.90;;;;;;5054319;28;20186;-67
2021/10/05 00:19:35;;;;;;;9.20;7.60;;;12.30;99.90;;;;;;5054334;28;20406;-66
2021/10/05 00:22:01;;;;;;;9.93;8.27;;;12.30;99.90;;;;;;5054260;28;20806;-67
2021/10/05 00:24:26;;;;;;;12.70;8.10;;;12.40;99.90;;;;;;5054386;28;20451;-67
2021/10/05 00:26:52;;;;;;;9.50;8.40;;;12.40;99.90;;;;;;5054185;28;20195;-66
2021/10/05 00:29:18;;;;;;;12.13;9.00;;;12.30;99.90;;;;;;5054243;28;20206;-67
2021/10/05 00:31:43;;;;;;;11.87;8.30;;;12.30;99.90;;;;;;5054465;28;20171;-66
2021/10/05 00:34:09;;;;;;;10.60;8.93;;;12.40;99.90;;;;;;5054180;28;20687;-66
2021/10/05 00:36:35;;;;;;;10.63;9.40;;;12.40;99.90;;;;;;5054267;28;20224;-66
2021/10/05 00:39:01;;;;;;;11.47;9.50;;;12.30;99.90;;;;;;5054626;28;20178;-66
2021/10/05 00:41:26;;;;;;;11.37;9.33;;;12.20;99.90;;;;;;5054386;28;20171;-66
2021/10/05 00:43:57;;;;;;;14.17;9.90;;;12.20;99.90;;;;;;5054334;28;20187;-66
2021/10/05 00:46:22;;;;;;;10.80;8.97;;;12.30;99.90;;;;;;5054343;28;20281;-66
2021/10/05 00:48:49;;;;;;;12.93;9.53;;;12.30;99.90;;;;;;5054349;28;20497;-66
2021/10/05 00:51:14;;;;;;;13.43;9.57;;;12.30;99.90;;;;;;5054309;28;20163;-66
2021/10/05 00:53:40;;;;;;;11.60;9.93;;;12.30;99.90;;;;;;5053879;28;20417;-66
2021/10/05 00:56:07;;;;;;;12.33;9.40;;;12.30;99.90;;;;;;5054614;28;20170;-66
2021/10/05 00:58:33;;;;;;;17.10;10.80;;;12.30;99.90;;;;;;5054590;28;20406;-66
2021/10/05 01:01:00;;;;;;;17.53;10.57;;;12.20;99.90;;;;;;5053358;28;20433;-66
2021/10/05 01:03:26;;;;;;;15.53;10.40;;;12.10;99.90;;;;;;5044878;28;20204;-66
2021/10/05 01:05:52;;;;;;;13.40;10.97;;;12.10;99.90;;;;;;5042046;28;20934;-66
2021/10/05 01:08:20;;;;;;;11.70;9.43;;;12.00;99.90;;;;;;5033426;28;20414;-67
2021/10/05 01:10:45;;;;;;;13.57;11.47;;;12.10;99.90;;;;;;5033463;28;20459;-67
2021/10/05 01:13:11;;;;;;;16.73;11.40;;;12.10;99.90;;;;;;5036399;28;20856;-67
2021/10/05 01:15:37;;;;;;;13.10;10.97;;;12.20;99.90;;;;;;5032807;28;20178;-67
2021/10/05 01:18:03;;;;;;;15.60;10.50;;;12.20;99.90;;;;;;5034644;28;20206;-66
2021/10/05 01:20:29;;;;;;;11.70;10.30;;;12.20;99.90;;;;;;5033816;28;20186;-66
2021/10/05 01:22:55;;;;;;;14.50;11.23;;;12.30;99.90;;;;;;5034260;28;20442;-66
2021/10/05 01:25:21;;;;;;;12.40;10.70;;;12.30;99.90;;;;;;5035084;28;20414;-66
2021/10/05 01:27:52;;;;;;;16.40;11.80;;;12.30;99.90;;;;;;5032823;28;20200;-66
2021/10/05 01:30:20;;;;;;;11.50;10.30;;;12.30;99.90;;;;;;5031912;28;20414;-66
2021/10/05 01:32:46;;;;;;;12.20;10.10;;;12.30;99.90;;;;;;5033413;28;20422;-67
2021/10/05 01:35:14;;;;;;;13.73;11.30;;;12.30;99.90;;;;;;5033052;28;20434;-67
2021/10/05 01:37:40;;;;;;;14.80;11.00;;;12.20;99.90;;;;;;5033454;28;20760;-67
2021/10/05 01:40:08;;;;;;;15.40;11.93;;;12.10;99.90;;;;;;5033372;28;20912;-66
2021/10/05 01:42:34;;;;;;;19.70;12.50;;;12.10;99.90;;;;;;5033078;28;20442;-66
2021/10/05 01:45:00;;;;;;;13.93;11.93;;;12.10;99.90;;;;;;5032850;28;20406;-66
2021/10/05 01:47:26;;;;;;;15.53;12.60;;;12.10;99.90;;;;;;5033081;28;20532;-66
2021/10/05 01:49:51;;;;;;;19.03;12.70;;;12.10;99.90;;;;;;5033130;28;20175;-66
2021/10/05 01:52:17;;;;;;;16.13;12.50;;;12.00;99.90;;;;;;5033000;28;20186;-67
2021/10/05 01:54:43;;;;;;;14.20;12.70;;;12.00;99.90;;;;;;5032845;28;20255;-67
2021/10/05 01:57:09;;;;;;;18.33;15.00;;;12.00;99.90;;;;;;5033251;28;20179;-66
2021/10/05 01:59:34;;;;;;;15.23;12.67;;;11.90;99.90;;;;;;5032794;28;20258;-66
2021/10/05 02:02:00;;;;;;;16.97;13.30;;;11.90;99.90;;;;;;5033320;28;20244;-66
2021/10/05 02:04:26;;;;;;;16.30;13.80;;;11.80;99.90;;;;;;5032755;28;20492;-66
2021/10/05 02:06:51;;;;;;;18.70;12.53;;;11.80;99.90;;;;;;5032620;28;20253;-66
2021/10/05 02:09:17;;;;;;;17.20;13.30;;;11.80;99.90;;;;;;5032702;28;20171;-66
2021/10/05 02:11:43;;;;;;;17.30;13.90;;;11.90;99.90;;;;;;5032595;28;20242;-66
2021/10/05 02:14:09;;;;;;;18.40;12.67;;;12.00;99.90;;;;;;5036657;28;20167;-66
2021/10/05 02:16:36;;;;;;;17.00;13.80;;;12.00;99.90;;;;;;5036739;28;20241;-66
2021/10/05 02:19:04;;;;;;;16.10;12.47;;;11.90;99.90;;;;;;5036637;28;20489;-66
2021/10/05 02:21:29;;;;;;;17.40;12.67;;;11.90;99.90;;;;;;5036508;28;20489;-68
2021/10/05 02:26:40;;;;;;;15.83;12.80;;;12.00;99.90;;;;;;5036568;28;20191;-67
2021/10/05 02:29:06;;;;;;;14.53;12.27;;;12.00;99.90;;;;;;5037035;28;20421;-66
2021/10/05 02:31:32;;;;;;;14.70;11.50;;;12.00;99.90;;;;;;5038861;28;20884;-67
2021/10/05 02:33:58;;;;;;;17.87;13.60;;;11.90;99.90;;;;;;5038337;28;20196;-67
2021/10/05 02:36:25;;;;;;;16.60;13.60;;;11.90;99.90;;;;;;5042122;28;20410;-67
2021/10/05 02:38:51;;;;;;;16.23;13.33;;;12.00;99.90;;;;;;5038044;28;20930;-67
2021/10/05 02:41:16;;;;;;;20.77;13.83;;;11.90;99.90;;;;;;5050307;28;20469;-67
2021/10/05 02:43:42;;;;;;;17.67;13.57;;;12.00;99.90;;;;;;5057744;28;20448;-66
2021/10/05 02:46:08;;;;;;;19.73;14.13;;;12.00;99.90;;;;;;5057180;28;20711;-66
2021/10/05 02:48:34;;;;;;;19.03;14.27;;;11.90;99.90;;;;;;5056983;28;20500;-67
2021/10/05 02:51:00;;;;;;;19.27;13.73;;;11.80;99.90;;;;;;5056889;28;20222;-67
2021/10/05 02:53:25;;;;;;;19.27;14.13;;;11.80;99.90;;;;;;5056434;28;20219;-66
2021/10/05 02:55:51;;;;;;;19.47;14.50;;;11.70;99.90;;;;;;5056275;28;20186;-67
2021/10/05 02:58:17;;;;;;;21.30;15.30;;;11.70;99.90;;;;;;5056370;28;20282;-67
2021/10/05 03:00:44;;;;;;;20.33;14.63;;;11.70;99.90;;;;;;5056364;28;20182;-67
2021/10/05 03:03:09;;;;;;;18.33;14.67;;;11.60;99.90;;;;;;5056148;28;20430;-67
2021/10/05 03:05:36;;;;;;;16.90;13.83;;;11.70;99.90;;;;;;5056026;28;20413;-67
2021/10/05 03:08:05;;;;;;;15.80;12.57;;;11.80;99.90;;;;;;5055732;28;20203;-66
2021/10/05 03:10:30;;;;;;;19.00;13.63;;;11.90;99.90;;;;;;5056345;28;20406;-66
2021/10/05 03:12:56;;;;;;;19.07;13.43;;;11.80;99.90;;;;;;5049128;28;21018;-67
2021/10/05 03:15:22;;;;;;;18.03;13.40;;;11.80;99.90;;;;;;5056236;28;20569;-67
2021/10/05 03:17:48;;;;;;;17.60;13.00;;;11.80;99.90;;;;;;5056259;28;20167;-66
2021/10/05 03:20:13;;;;;;;19.20;13.50;;;11.70;99.90;;;;;;5056785;28;20179;-66
2021/10/05 03:22:39;;;;;;;19.00;14.00;;;11.60;99.90;;;;;;5036379;28;20302;-66
2021/10/05 03:25:05;;;;;;;18.20;12.00;;;11.80;99.90;;;;;;5036646;28;20179;-66
2021/10/05 03:27:35;;;;;;;19.07;13.53;;;11.70;99.90;;;;;;5044470;28;20203;-67
2021/10/05 03:30:02;;;;;;;14.90;11.80;;;11.80;99.90;;;;;;5057449;28;20416;-66
2021/10/05 03:32:27;;;;;;;17.30;14.77;;;11.90;99.90;;;;;;5057127;28;20912;-66
2021/10/05 03:34:53;;;;;;;18.57;12.57;;;11.80;99.90;;;;;;5056428;28;20410;-67
2021/10/05 03:37:19;;;;;;;18.47;13.50;;;11.80;99.90;;;;;;5056473;28;20632;-66
2021/10/05 03:39:44;;;;;;;17.30;12.77;;;11.90;99.90;;;;;;5056872;28;20201;-66
2021/10/05 03:42:10;;;;;;;17.90;13.40;;;11.90;99.90;;;;;;5056462;28;20206;-66
2021/10/05 03:44:36;;;;;;;17.10;12.23;;;11.80;99.90;;;;;;5055492;28;20636;-66
2021/10/05 03:47:02;;;;;;;16.27;12.57;;;11.80;99.90;;;;;;5055810;28;20191;-66
2021/10/05 03:49:28;;;;;;;18.20;13.70;;;11.80;99.90;;;;;;5056519;28;20167;-67
2021/10/05 03:51:53;;;;;;;19.30;13.03;;;11.80;99.90;;;;;;5056011;28;20174;-66
2021/10/05 03:54:19;;;;;;;21.20;15.00;;;11.70;99.90;;;;;;5055836;28;20894;-66
2021/10/05 03:56:45;;;;;;;20.97;14.10;;;11.70;99.90;;;;;;5055613;28;20179;-66
2021/10/05 03:59:15;;;;;;;20.67;14.33;;;11.60;99.90;;;;;;5055588;28;20171;-67
2021/10/05 04:01:42;;;;;;;21.70;14.80;;;11.70;99.90;;;;;;5054303;28;20174;-67
2021/10/05 04:04:07;;;;;;;20.47;14.30;;;11.70;99.90;;;;;;5055935;28;20456;-67
2021/10/05 04:06:33;;;;;;;19.70;14.20;;;11.70;99.90;;;;;;5055698;28;21031;-67
2021/10/05 04:08:59;;;;;;;18.43;14.03;;;11.70;99.90;;;;;;5055662;28;20174;-67
2021/10/05 04:11:24;;;;;;;17.73;12.77;;;11.60;99.90;;;;;;5053915;28;20193;-67
2021/10/05 04:13:50;;;;;;;16.10;12.33;;;11.60;99.90;;;;;;5055425;28;20610;-67
2021/10/05 04:16:16;;;;;;;16.13;12.73;;;11.60;99.90;;;;;;5056048;28;20175;-66
2021/10/05 04:18:41;;;;;;;17.90;13.50;;;11.70;99.90;;;;;;5055594;28;20198;-66
2021/10/05 04:21:08;;;;;;;21.93;14.77;;;11.70;99.90;;;;;;5055365;28;20163;-67
2021/10/05 04:23:34;;;;;;;20.87;14.73;;;11.70;99.90;;;;;;5054619;28;20217;-67
2021/10/05 04:26:00;;;;;;;19.00;14.13;;;11.70;99.90;;;;;;5055260;28;20489;-67
2021/10/05 04:28:25;;;;;;;20.80;14.97;;;11.70;99.90;;;;;;5054991;28;20221;-67
2021/10/05 04:30:51;;;;;;;22.97;15.90;;;11.70;99.90;;;;;;5054881;28;20593;-67
2021/10/05 04:33:17;;;;;;;22.07;16.00;;;11.70;99.90;;;;;;5054815;28;20191;-66
2021/10/05 04:35:43;;;;;;;22.90;14.63;;;11.70;99.90;;;;;;5054089;28;20167;-67
2021/10/05 04:38:08;;;;;;;22.37;15.97;;;11.60;99.90;;;;;;5054377;28;20206;-67
2021/10/05 04:40:34;;;;;;;21.07;15.00;;;11.60;99.90;;;;;;5054666;28;20171;-66
2021/10/05 04:43:00;;;;;;;25.77;17.00;;;11.70;99.90;;;;;;5054801;28;20559;-67
2021/10/05 04:45:26;;;;;;;22.03;14.33;;;11.70;99.90;;;;;;5054896;28;20178;-67
2021/10/05 04:47:51;;;;;;;22.27;16.50;;;11.60;99.90;;;;;;5054751;28;20647;-67
2021/10/05 04:50:17;;;;;;;22.07;16.23;;;11.60;99.90;;;;;;5054733;28;20171;-67
2021/10/05 04:52:43;;;;;;;22.00;14.87;;;11.60;99.90;;;;;;5054426;28;20187;-67
2021/10/05 04:55:09;;;;;;;24.63;16.83;;;11.60;99.90;;;;;;5054318;28;20167;-66
2021/10/05 04:57:35;;;;;;;20.90;14.90;;;11.60;99.90;;;;;;5054082;28;20890;-66
2021/10/05 05:00:02;;;;;;;19.90;13.40;;;11.60;99.90;;;;;;5054015;28;20501;-67
2021/10/05 05:02:28;;;;;;;20.90;14.57;;;11.60;99.90;;;;;;5054169;28;20237;-66
2021/10/05 05:04:54;;;;;;;19.53;14.23;;;11.60;99.90;;;;;;5054198;28;20972;-66
2021/10/05 05:07:19;;;;;;;21.77;14.57;;;11.60;99.90;;;;;;5054322;28;20203;-67
2021/10/05 05:09:45;;;;;;;21.73;14.77;;;11.60;99.90;;;;;;5054318;28;20159;-66
2021/10/05 05:12:11;;;;;;;23.73;16.57;;;11.60;99.90;;;;;;5054025;28;20622;-66
2021/10/05 05:14:37;;;;;;;22.73;15.37;;;11.60;99.90;;;;;;5047869;28;20179;-66
2021/10/05 05:17:02;;;;;;;30.20;16.17;;;11.60;99.90;;;;;;5053860;28;20817;-66
2021/10/05 05:19:28;;;;;;;28.50;16.30;;;11.60;99.90;;;;;;5053784;28;20179;-66
2021/10/05 05:21:57;;;;;;;22.57;14.67;;;11.60;99.90;;;;;;5052150;28;20190;-66
2021/10/05 05:24:23;;;;;;;23.67;15.77;;;11.60;99.90;;;;;;5053854;28;20159;-65
2021/10/05 05:26:48;;;;;;;20.37;13.27;;;11.60;99.90;;;;;;5053691;28;20536;-66
2021/10/05 05:29:14;;;;;;;22.57;14.10;;;11.60;99.90;;;;;;5054107;28;20170;-66
2021/10/05 05:31:40;;;;;;;21.67;14.13;;;11.60;99.90;;;;;;5054390;28;20631;-67
2021/10/05 05:34:05;;;;;;;25.80;13.87;;;11.60;99.90;;;;;;5055062;28;20167;-66
2021/10/05 05:36:31;;;;;;;23.60;14.50;;;11.50;99.90;;;;;;5054928;28;20635;-66
2021/10/05 05:38:57;;;;;;;20.70;13.70;;;11.50;99.90;;;;;;5054312;28;20176;-67
2021/10/05 05:41:22;;;;;;;24.63;14.97;;;11.50;99.90;;;;;;5054060;28;20179;-67
2021/10/05 05:43:48;;;;;;;21.10;13.40;;;11.60;99.90;;;;;;5053618;28;20604;-67
2021/10/05 05:46:14;;;;;;;23.33;15.23;;;11.60;99.90;;;;;;5053849;28;20245;-66
2021/10/05 05:48:40;;;;;;;24.83;13.57;;;11.50;99.90;;;;;;5054066;28;20167;-66
2021/10/05 05:51:05;;;;;;;24.00;14.00;;;11.50;99.90;;;;;;5054297;28;20571;-66
2021/10/05 05:53:31;;;;;;;21.77;13.13;;;11.50;99.90;;;;;;5054197;28;20218;-66
2021/10/05 05:55:57;;;;;;;20.57;12.73;;;11.50;99.90;;;;;;5054220;28;20221;-66
2021/10/05 05:58:23;;;;;;;24.53;13.00;;;11.50;99.90;;;;;;5054057;28;20171;-66
2021/10/05 06:00:49;;;;;;;22.97;15.23;;;11.50;99.90;;;;;;5054006;28;20496;-66
2021/10/05 06:03:15;;;;;;;20.63;14.20;;;11.50;99.90;;;;;;5051978;28;20187;-66
2021/10/05 06:05:41;;;;;;;20.23;12.73;;;11.60;99.90;;;;;;5053111;28;20174;-66
2021/10/05 06:08:08;;;;;;;18.70;12.50;;;11.60;99.90;;;;;;5053609;28;20480;-66
2021/10/05 06:10:34;;;;;;;18.57;13.30;;;11.60;99.90;;;;;;5053629;28;20459;-66
2021/10/05 06:12:59;;;;;;;20.57;13.53;;;11.70;99.90;;;;;;5054141;28;20751;-66
2021/10/05 06:15:26;;;;;;;19.90;14.13;;;11.70;99.90;;;;;;5054000;28;20417;-66
2021/10/05 06:17:52;;;;;;;21.40;13.83;;;11.70;99.90;;;;;;5053568;28;20171;-67
2021/10/05 06:20:23;;;;;;;20.23;13.77;;;11.80;99.90;;;;;;5053750;28;20409;-66
2021/10/05 06:22:50;;;;;;;20.17;13.80;;;11.80;99.90;;;;;;5053837;28;21040;-66
2021/10/05 06:25:23;;;;;;;19.30;13.80;;;11.80;99.90;;;;;;5054393;28;20420;-66
2021/10/05 06:27:49;;;;;;;17.37;12.30;;;11.70;99.90;;;;;;5054262;28;20433;-66
2021/10/05 06:30:17;;;;;;;20.03;12.43;;;11.80;99.90;;;;;;5054317;28;20398;-66
2021/10/05 06:32:44;;;;;;;26.83;13.67;;;11.70;99.90;;;;;;5054841;28;20417;-66
2021/10/05 06:35:10;;;;;;;25.97;15.13;;;11.70;99.90;;;;;;5054703;28;20401;-65
2021/10/05 06:37:38;;;;;;;19.03;12.23;;;11.70;99.90;;;;;;5054520;28;20477;-66
2021/10/05 06:40:04;;;;;;;20.30;13.47;;;11.70;99.90;;;;;;5054714;28;20410;-65
2021/10/05 06:42:35;;;;;;;22.90;13.30;;;11.70;99.90;;;;;;5054523;28;20502;-66
2021/10/05 06:45:05;;;;;;;20.70;13.67;;;11.80;99.90;;;;;;5054564;28;20394;-65
2021/10/05 06:47:31;;;;;;;21.53;12.80;;;11.80;99.90;;;;;;5053852;28;20476;-66
2021/10/05 06:49:58;;;;;;;18.17;12.47;;;11.90;99.90;;;;;;5053646;28;20764;-66
2021/10/05 06:52:24;;;;;;;20.93;12.37;;;11.90;99.90;;;;;;5052770;28;20496;-67
2021/10/05 06:54:50;;;;;;;17.53;10.13;;;12.00;99.90;;;;;;5052643;28;20418;-66
2021/10/05 06:57:15;;;;;;;16.83;11.57;;;11.90;99.90;;;;;;5032031;28;20487;-66
2021/10/05 06:59:41;;;;;;;16.77;12.03;;;11.90;99.90;;;;;;5054866;28;20163;-66
2021/10/05 07:02:07;;;;;;;15.83;11.00;;;12.00;99.90;;;;;;5050301;28;20207;-66
2021/10/05 07:04:33;;;;;;;17.10;11.27;;;12.10;99.90;;;;;;5043323;28;20179;-66
2021/10/05 07:06:58;;;;;;;17.47;11.30;;;12.20;99.90;;;;;;5051431;28;20202;-67
2021/10/05 07:09:24;;;;;;;14.50;10.63;;;12.30;99.90;;;;;;5054964;28;20956;-66
2021/10/05 07:11:50;;;;;;;12.83;8.80;;;12.30;99.90;;;;;;5055606;28;20171;-66
2021/10/05 07:14:16;;;;;;;15.37;10.53;;;12.40;99.90;;;;;;5050829;28;20187;-66
2021/10/05 07:16:42;;;;;;;13.47;9.50;;;12.30;99.90;;;;;;5050894;28;20508;-67
2021/10/05 07:19:08;;;;;;;14.60;10.53;;;12.40;99.90;;;;;;5048525;28;20191;-66
2021/10/05 07:21:33;;;;;;;13.33;9.20;;;12.40;99.90;;;;;;5051755;28;20258;-67
2021/10/05 07:23:59;;;;;;;15.20;8.90;;;12.40;99.90;;;;;;5054454;28;20210;-67
2021/10/05 07:26:25;;;;;;;14.50;8.73;;;12.50;99.90;;;;;;5051896;28;20229;-66
2021/10/05 07:28:51;;;;;;;13.00;8.67;;;;;;;;;;5053495;28;20183;-66
2021/10/05 07:31:17;;;;;;;12.40;9.17;;;;;;;;;;5052041;28;20460;-67
2021/10/05 07:33:44;;;;;;;11.20;7.80;;;12.50;99.90;;;;;;5054453;28;20440;-67
2021/10/05 07:36:10;;;;;;;9.43;8.40;;;;;;;;;;5052985;28;20759;-66
2021/10/05 07:38:36;;;;;;;9.63;7.20;;;;;;;;;;5045718;28;20430;-67
2021/10/05 07:41:03;;;;;;;12.33;7.73;;;;;;;;;;5048592;28;20475;-67
2021/10/05 07:43:29;;;;;;;9.77;7.40;;;;;;;;;;5053495;28;20438;-66
2021/10/05 07:45:58;;;;;;;8.67;7.30;;;;;;;;;;5052314;28;20413;-67
2021/10/05 07:48:24;;;;;;;9.20;6.60;;;;;;;;;;5052339;28;20453;-67
2021/10/05 07:50:50;;;;;;;9.43;7.10;;;;;;;;;;5051349;28;20417;-67
2021/10/05 07:53:16;;;;;;;9.47;7.47;;;;;;;;;;5051823;28;20518;-66
2021/10/05 07:55:42;;;;;;;12.27;7.60;;;;;;;;;;5051052;28;20406;-70
2021/10/05 07:58:08;;;;;;;9.53;7.37;;;12.90;99.90;;;;;;5058380;28;20916;-69
2021/10/05 08:00:34;;;;;;;9.67;7.50;;;;;;;;;;5051849;28;20425;-68
2021/10/05 08:03:00;;;;;;;11.63;7.77;;;;;;;;;;5054343;28;20198;-68
2021/10/05 08:05:26;;;;;;;8.27;7.00;;;;;;;;;;5055523;28;20440;-68
2021/10/05 08:08:05;;;;;;;10.23;6.50;;;;;;;;;;5047854;28;20482;-68
2021/10/05 08:10:34;;;;;;;8.57;5.40;;;;;;;;;;5050369;28;20405;-64
2021/10/05 08:13:01;;;;;;;11.90;6.43;;;;;;;;;;5048018;28;20439;-65
2021/10/05 08:15:28;;;;;;;7.00;5.63;;;;;;;;;;5051420;28;20812;-65
2021/10/05 08:17:55;;;;;;;8.80;6.33;;;;;;;;;;5050811;28;20728;-70
2021/10/05 08:20:21;;;;;;;7.93;6.10;;;;;;;;;;5050374;28;20448;-68
2021/10/05 08:22:47;;;;;;;9.43;5.83;;;;;;;;;;5048301;28;20448;-68
2021/10/05 08:25:13;;;;;;;9.03;6.77;;;;;;;;;;5051666;28;20410;-68
2021/10/05 08:27:39;;;;;;;8.50;6.47;;;;;;;;;;5051450;28;20473;-68
2021/10/05 08:30:07;;;;;;;8.57;6.67;;;;;;;;;;5048205;28;20410;-68
2021/10/05 08:32:34;;;;;;;7.60;6.20;;;;;;;;;;5050384;28;20437;-68
2021/10/05 08:35:00;;;;;;;8.03;6.30;;;;;;;;;;5050417;28;21203;-70
2021/10/05 08:37:26;;;;;;;8.07;5.50;;;;;;;;;;5051175;28;20417;-70
2021/10/05 08:39:52;;;;;;;15.10;6.43;;;;;;;;;;5050423;28;20402;-69
2021/10/05 08:42:22;;;;;;;9.23;6.63;;;;;;;;;;5048642;28;21281;-70
2021/10/05 08:44:48;;;;;;;7.60;6.13;;;;;;;;;;5048421;28;20429;-70
2021/10/05 08:47:15;;;;;;;6.20;5.60;;;;;;;;;;5052281;28;20822;-69
2021/10/05 08:49:43;;;;;;;9.43;8.10;;;;;;;;;;5050168;28;20421;-69
2021/10/05 08:52:09;;;;;;;8.20;6.53;;;;;;;;;;5058894;28;20540;-68
2021/10/05 08:54:35;;;;;;;7.80;6.53;;;;;;;;;;5052920;28;20516;-67
2021/10/05 08:57:01;;;;;;;9.47;7.87;;;;;;;;;;5051838;28;21039;-68
2021/10/05 08:59:27;;;;;;;9.57;6.80;;;;;;;;;;5052012;28;20910;-68
2021/10/05 09:01:54;;;;;;;9.83;6.03;;;;;;;;;;5044474;28;20875;-66
2021/10/05 09:04:21;;;;;;;10.57;7.57;;;;;;;;;;5052605;28;20838;-67
2021/10/05 09:06:54;;;;;;;8.97;6.90;;;;;;;;;;5047840;28;20518;-66
2021/10/05 09:09:21;;;;;;;11.77;6.73;;;;;;;;;;5051366;28;20419;-67
2021/10/05 09:11:49;;;;;;;9.83;7.60;;;;;;;;;;5050501;28;20418;-68
2021/10/05 09:14:15;;;;;;;9.27;7.73;;;;;;;;;;5046346;28;20516;-68
2021/10/05 09:16:43;;;;;;;10.80;8.23;;;;;;;;;;5045358;28;20436;-70
2021/10/05 09:19:13;;;;;;;9.20;7.20;;;;;;;;;;5049855;28;20483;-68
2021/10/05 09:21:40;;;;;;;9.20;7.30;;;;;;;;;;5047895;28;20425;-70
2021/10/05 09:24:07;;;;;;;10.57;7.53;;;;;;;;;;5050361;28;20475;-71
2021/10/05 09:26:34;;;;;;;16.60;8.50;;;;;;;;;;5047782;28;20966;-69
2021/10/05 09:29:15;;;;;;;8.23;6.50;;;;;;;;;;5051530;28;20496;-70
2021/10/05 09:31:49;;;;;;;7.13;5.60;;;;;;;;;;5050989;28;20421;-68
2021/10/05 09:34:15;;;;;;;8.07;6.60;;;;;;;;;;5048451;28;20464;-67
2021/10/05 09:36:41;;;;;;;8.43;6.97;;;;;;;;;;5051129;28;20425;-66
2021/10/05 09:39:07;;;;;;;6.77;6.07;;;;;;;;;;5050180;28;20426;-70
2021/10/05 09:41:33;;;;;;;8.50;5.60;;;;;;;;;;5046366;28;20472;-66
2021/10/05 09:44:03;;;;;;;6.50;5.57;;;;;;;;;;5050737;28;20456;-71
2021/10/05 09:46:30;;;;;;;6.10;5.10;;;;;;;;;;5047680;28;20528;-67
2021/10/05 09:49:14;;;;;;;6.40;5.03;;;;;;;;;;5053342;28;20782;-68
2021/10/05 09:51:40;;;;;;;8.23;6.10;;;;;;;;;;5050894;28;20405;-69
2021/10/05 09:54:06;;;;;;;8.73;6.30;;;;;;;;;;5049377;28;20423;-68
2021/10/05 09:56:32;;;;;;;5.23;4.73;;;;;;;;;;5048244;28;20437;-69
2021/10/05 09:58:59;;;;;;;8.27;5.67;;;;;;;;;;5051466;28;20418;-69
2021/10/05 10:01:26;;;;;;;6.07;4.83;;;;;;;;;;5050617;28;20925;-70
2021/10/05 10:03:52;;;;;;;8.30;5.00;;;;;;;;;;5049583;28;20544;-71
2021/10/05 10:06:19;;;;;;;8.30;4.63;;;;;;;;;;5051188;28;20463;-69
2021/10/05 10:08:46;;;;;;;6.90;6.10;;;14.70;99.90;;;;;;5047829;28;20421;-67
2021/10/05 10:11:12;;;;;;;6.30;5.07;;;14.70;99.90;;;;;;5039867;28;20414;-68
2021/10/05 10:13:40;;;;;;;7.17;5.60;;;14.80;99.90;;;;;;5049777;28;20507;-64
2021/10/05 10:16:07;;;;;;;7.43;5.33;;;14.80;99.90;;;;;;5048358;28;20433;-69
2021/10/05 10:18:33;;;;;;;6.90;5.70;;;15.00;99.90;;;;;;5049660;28;20979;-71
2021/10/05 10:21:05;;;;;;;7.60;6.20;;;14.90;99.90;;;;;;5050686;28;20425;-68
2021/10/05 10:23:32;;;;;;;7.97;6.00;;;14.80;99.90;;;;;;5050619;28;20222;-72
2021/10/05 10:26:04;;;;;;;7.00;6.20;;;14.70;99.90;;;;;;5050394;28;20429;-67
2021/10/05 10:28:31;;;;;;;7.50;6.60;;;14.80;99.90;;;;;;5049306;28;20448;-69
2021/10/05 10:31:01;;;;;;;7.33;6.23;;;14.60;99.90;;;;;;5051292;28;20422;-67
2021/10/05 10:33:29;;;;;;;6.53;5.90;;;14.70;99.90;;;;;;5051712;28;20570;-67
2021/10/05 10:35:57;;;;;;;6.80;5.47;;;14.70;99.90;;;;;;5053960;28;20444;-66
2021/10/05 10:38:28;;;;;;;7.57;6.03;;;14.90;99.90;;;;;;5053785;28;20422;-65
2021/10/05 10:40:54;;;;;;;7.87;5.83;;;14.80;99.90;;;;;;5054441;28;20869;-66
2021/10/05 10:43:25;;;;;;;10.13;5.90;;;14.60;99.90;;;;;;5051255;28;20473;-69
2021/10/05 10:45:55;;;;;;;5.60;4.77;;;14.60;99.90;;;;;;5056515;28;20514;-70
2021/10/05 10:48:28;;;;;;;6.00;5.30;;;14.40;99.90;;;;;;5036192;28;20547;-69
2021/10/05 10:50:55;;;;;;;6.83;6.10;;;14.30;99.90;;;;;;5061776;28;20417;-69
2021/10/05 10:53:33;;;;;;;6.17;5.57;;;14.30;99.90;;;;;;5059276;28;20433;-69
2021/10/05 10:55:58;;;;;;;7.13;5.73;;;14.40;99.90;;;;;;5060570;28;20409;-70
2021/10/05 10:58:41;;;;;;;8.10;5.50;;;14.20;99.90;;;;;;5055765;28;20447;-70
2021/10/05 11:01:09;;;;;;;7.30;5.80;;;14.40;99.90;;;;;;5054435;28;20573;-70
2021/10/05 11:03:35;;;;;;;5.80;4.70;;;14.70;99.90;;;;;;5054740;28;20437;-70
2021/10/05 11:06:01;;;;;;;5.90;5.30;;;14.80;99.90;;;;;;5053563;28;20422;-69
2021/10/05 11:08:26;;;;;;;7.80;6.00;;;14.90;99.90;;;;;;5053032;28;20527;-70
2021/10/05 11:11:00;;;;;;;5.17;4.67;;;14.80;99.90;;;;;;5052222;28;20171;-69
2021/10/05 11:13:26;;;;;;;5.70;4.87;;;14.80;99.90;;;;;;5053942;28;20669;-70
2021/10/05 11:15:52;;;;;;;6.63;5.27;;;14.60;99.90;;;;;;5050547;28;20472;-67
2021/10/05 11:18:22;;;;;;;6.73;4.77;;;14.50;99.90;;;;;;5046509;28;20806;-70
2021/10/05 11:20:48;;;;;;;5.47;4.90;;;14.40;99.90;;;;;;5046516;28;20440;-69
2021/10/05 11:23:18;;;;;;;5.77;4.50;;;14.40;99.90;;;;;;5050992;28;20461;-68
2021/10/05 11:25:58;;;;;;;6.37;5.67;;;14.40;99.90;;;;;;5053200;28;20175;-65
2021/10/05 11:28:31;;;;;;;5.90;5.20;;;14.20;99.90;;;;;;5052891;28;20812;-65
2021/10/05 11:30:58;;;;;;;5.63;5.13;;;14.30;99.90;;;;;;5045291;28;20444;-66
2021/10/05 11:33:46;;;;;;;6.57;5.73;;;14.40;99.90;;;;;;5049998;28;20484;-65
2021/10/05 11:36:20;;;;;;;9.03;5.73;;;14.50;99.90;;;;;;5052177;28;20495;-65
2021/10/05 11:38:48;;;;;;;7.10;5.60;;;14.40;99.90;;;;;;5047718;28;20401;-65
2021/10/05 11:41:16;;;;;;;6.10;5.17;;;14.40;99.90;;;;;;5052693;28;20426;-65
2021/10/05 11:43:50;;;;;;;6.27;5.47;;;14.40;99.90;;;;;;5053070;28;20444;-65
2021/10/05 11:46:21;;;;;;;7.10;5.63;;;14.50;99.90;;;;;;5052118;28;20424;-65
2021/10/05 11:48:49;;;;;;;5.17;4.40;;;14.60;99.90;;;;;;5052882;28;20402;-66
2021/10/05 11:51:17;;;;;;;12.10;6.20;;;14.70;99.90;;;;;;5051533;28;20421;-66
2021/10/05 11:53:44;;;;;;;7.50;5.77;;;14.70;99.90;;;;;;5051065;28;20491;-66
2021/10/05 11:56:12;;;;;;;7.67;5.67;;;14.60;99.90;;;;;;5053135;28;20504;-65
2021/10/05 11:58:41;;;;;;;7.47;5.83;;;14.40;99.90;;;;;;5050786;28;20520;-66
2021/10/05 12:01:25;;;;;;;7.37;5.43;;;14.20;99.90;;;;;;5054373;28;20425;-67
2021/10/05 12:03:53;;;;;;;5.97;4.87;;;14.40;99.90;;;;;;5052502;28;20897;-68
2021/10/05 12:06:31;;;;;;;4.97;4.30;;;14.70;99.90;;;;;;5051045;28;20901;-67
2021/10/05 12:08:59;;;;;;;7.33;4.60;;;14.80;99.90;;;;;;5048876;28;20989;-74
2021/10/05 12:11:35;;;;;;;6.10;4.00;;;15.00;99.90;;;;;;5059265;28;20425;-70
2021/10/05 12:14:01;;;;;;;7.10;4.23;;;15.20;99.90;;;;;;5053212;28;20450;-73
2021/10/05 12:16:27;;;;;;;5.23;4.50;;;15.40;99.90;;;;;;5051940;28;20484;-72
2021/10/05 12:18:58;;;;;;;5.97;4.80;;;15.50;99.90;;;;;;5053530;28;20472;-72
2021/10/05 12:21:24;;;;;;;6.97;4.40;;;15.70;99.90;;;;;;5052848;28;20960;-70
2021/10/05 12:23:51;;;;;;;5.60;4.90;;;15.90;99.90;;;;;;5052390;28;20479;-75
2021/10/05 12:26:17;;;;;;;4.67;3.70;;;16.00;99.90;;;;;;5053167;28;20721;-72
2021/10/05 12:29:10;;;;;;;6.83;4.70;;;15.90;99.90;;;;;;5052195;28;20501;-73
2021/10/05 12:31:36;;;;;;;4.30;3.50;;;16.00;99.90;;;;;;5052796;28;20437;-71
2021/10/05 12:34:07;;;;;;;5.47;4.43;;;16.20;99.90;;;;;;5052890;28;20465;-72
2021/10/05 12:36:37;;;;;;;4.50;3.53;;;16.50;99.90;;;;;;5052411;28;20772;-73
2021/10/05 12:39:18;;;;;;;5.10;3.57;;;17.00;99.90;;;;;;5051399;28;20906;-73
2021/10/05 12:41:59;;;;;;;4.10;3.20;;;17.20;99.90;;;;;;5051693;28;20406;-67
2021/10/05 12:44:25;;;;;;;5.33;3.50;;;17.20;99.90;;;;;;5048832;28;20426;-66
2021/10/05 12:46:57;;;;;;;5.30;4.00;;;17.30;99.90;;;;;;5051610;28;20522;-67
2021/10/05 12:49:24;;;;;;;6.07;3.30;;;17.00;99.90;;;;;;5052697;28;20406;-70
2021/10/05 12:51:51;;;;;;;3.80;3.37;;;16.80;99.90;;;;;;5050768;28;20983;-68
2021/10/05 12:54:17;;;;;;;3.83;3.00;;;16.90;99.90;;;;;;5048932;28;20504;-67
2021/10/05 12:56:45;;;;;;;3.50;2.70;;;16.80;99.90;;;;;;5047989;28;20839;-64